Observations for Trim Patrick St
| Time | AQI | Temp °C | Hum % | Pres Pa | CO μg/m³ | H₂S μg/m³ | NO μg/m³ | NO₂ μg/m³ | O₃ μg/m³ | SO₂ μg/m³ | PM1 μg/m³ | PM2.5 μg/m³ | PM10 μg/m³ |
|---|---|---|---|---|---|---|---|---|---|---|---|---|---|
| Thursday 6 August 2026 | |||||||||||||
| 19:26 | 3 | 23.5 | 45 | 68,894 | 0 | 8.45 | 1.29 | 9.65 | 63.64 | 7.44 | 2 | 8.28 | 9.11 |
| 19:25 | 3 | 23.6 | 45 | 68,910 | 0 | 11.47 | 1.25 | 14.04 | 62.5 | 7.82 | 2.86 | 8.29 | 9.12 |
| 19:23 | 3 | 23.8 | 44 | 68,926 | 0 | 10.08 | 1.23 | 10.13 | 67.75 | 8.37 | 2 | 6.77 | 7.44 |
| 19:22 | 3 | 23.9 | 44 | 68,920 | 0 | 10 | 1.21 | 9.53 | 73.39 | 8.16 | 3.71 | 9.1 | 10.01 |
| 19:21 | 3 | 24 | 44 | 68,916 | 0 | 9.97 | 1.2 | 10.91 | 71.43 | 8 | 2.86 | 9.12 | 10.03 |
| 19:20 | 3 | 24.1 | 44 | 68,906 | 0 | 8.48 | 1.21 | 9.84 | 65.24 | 8.18 | 2.86 | 9.14 | 10.05 |
| 19:19 | 3 | 24.2 | 44 | 68,924 | 0 | 6.67 | 1.28 | 9.86 | 61.02 | 8.1 | 2.86 | 8.38 | 9.22 |
| 19:18 | 3 | 24.2 | 44 | 68,918 | 0 | 6.62 | 1.34 | 9.75 | 67.31 | 8.11 | 2.86 | 8.38 | 9.22 |
| 19:17 | 3 | 24.4 | 43 | 68,939 | 0 | 7.67 | 1.34 | 9.8 | 58.83 | 8.85 | 2.86 | 8.4 | 9.24 |
| 19:16 | 3 | 24.4 | 43 | 68,941 | 0 | 6.47 | 1.33 | 10.69 | 60.61 | 7.87 | 2 | 8.4 | 9.24 |
| 19:15 | 3 | 24.5 | 43 | 68,937 | 0 | 6.55 | 1.32 | 9.71 | 59.76 | 8.67 | 2 | 7.63 | 8.39 |
| 19:14 | 3 | 24.5 | 43 | 68,935 | 0 | 5.51 | 1.29 | 13.06 | 54.84 | 7.79 | 2.86 | 9.2 | 10.12 |
| 19:11 | 3 | 24.7 | 43 | 68,959 | 0 | 7.81 | 1.56 | 13.66 | 57.14 | 8.71 | 2 | 6.87 | 7.56 |
| 19:10 | 3 | 24.8 | 42 | 68,957 | 0 | 5.13 | 1.58 | 10.85 | 57.53 | 8.41 | 2.86 | 9.23 | 10.15 |
| 19:09 | 3 | 24.8 | 42 | 68,959 | 0 | 4.25 | 1.83 | 16.84 | 58.34 | 7.82 | 2 | 7.69 | 8.46 |
| 19:02 | 3 | 25 | 42 | 68,949 | 0 | 4.45 | 1.84 | 15.95 | 56.38 | 7.54 | 3.71 | 9.24 | 10.17 |
| 19:01 | 3 | 24.9 | 42 | 68,949 | 0 | 5.65 | 1.86 | 11.22 | 61.65 | 8.54 | 2.86 | 8.45 | 9.3 |
| 19:00 | 3 | 24.9 | 42 | 68,943 | 0 | 7.17 | 1.85 | 17.83 | 60.12 | 8.19 | 3.71 | 10.02 | 11.03 |
| 18:59 | 3 | 24.9 | 42 | 68,935 | 0 | 4.46 | 1.86 | 13.37 | 59.93 | 7.93 | 2.86 | 9.24 | 10.17 |
| 18:58 | 3 | 24.9 | 42 | 68,930 | 0 | 2.97 | 1.86 | 10.32 | 55.81 | 7.92 | 3.71 | 9.24 | 10.16 |